createdAt,value
2023-04-15T06:34:08.394Z,88.80
2023-04-15T06:39:11.467Z,90.00
2023-04-15T06:44:13.891Z,90.00
2023-04-15T06:49:17.796Z,89.90
2023-04-15T06:54:20.625Z,89.20
2023-04-15T06:59:23.131Z,88.50
2023-04-15T07:04:27.351Z,88.60
2023-04-15T07:09:30.122Z,87.80
2023-04-15T07:14:32.634Z,87.70
2023-04-15T07:19:36.799Z,87.90
2023-04-15T07:24:39.344Z,88.10
2023-04-15T07:29:41.884Z,88.90
2023-04-15T07:34:48.530Z,90.00
2023-04-15T07:39:51.188Z,89.10
2023-04-15T07:44:53.825Z,89.00
2023-04-15T07:49:57.856Z,89.20
2023-04-15T07:55:00.466Z,88.80
2023-04-15T08:00:05.354Z,89.60
2023-04-15T08:05:16.696Z,89.70
2023-04-15T08:10:19.495Z,89.80
2023-04-15T08:15:22.215Z,90.20
2023-04-15T08:20:28.745Z,90.10
2023-04-15T08:25:32.288Z,90.60
2023-04-15T08:30:35.919Z,90.10
2023-04-15T08:35:39.908Z,90.00
2023-04-15T08:40:44.482Z,90.20
2023-04-15T08:45:49.727Z,90.20
2023-04-15T08:50:53.828Z,90.30
2023-04-15T08:56:00.036Z,90.10
2023-04-15T09:01:03.061Z,90.20
2023-04-15T09:06:07.248Z,89.80
2023-04-15T09:11:09.876Z,88.90
2023-04-15T09:16:13.432Z,87.90
2023-04-15T09:21:18.713Z,87.00
2023-04-15T09:26:41.147Z,87.40
2023-04-15T09:31:43.572Z,87.30
2023-04-15T09:36:57.584Z,86.10
2023-04-15T09:42:07.839Z,85.60
2023-04-15T09:47:31.003Z,86.20
2023-04-15T09:52:41.917Z,85.50
2023-04-15T09:57:53.960Z,84.70
2023-04-15T10:02:56.764Z,84.10
2023-04-15T10:08:01.763Z,85.00
2023-04-15T10:13:05.348Z,84.70
2023-04-15T10:18:11.373Z,85.00
2023-04-15T10:23:16.282Z,83.30
2023-04-15T10:28:22.500Z,82.80
2023-04-15T10:33:26.965Z,82.80
2023-04-15T10:38:35.931Z,82.90
2023-04-15T10:43:38.714Z,82.50
2023-04-15T10:48:49.502Z,83.10
2023-04-15T10:53:57.710Z,84.20
2023-04-15T10:59:00.723Z,84.70
2023-04-15T11:04:03.678Z,85.10
2023-04-15T11:09:07.819Z,85.30
2023-04-15T11:14:16.304Z,85.30
2023-04-15T11:19:18.987Z,84.90
2023-04-15T11:24:26.590Z,84.80
2023-04-15T11:29:30.522Z,84.30
2023-04-15T11:34:36.282Z,84.40
2023-04-15T11:39:40.359Z,85.10
2023-04-15T11:44:42.910Z,85.20
2023-04-15T11:49:45.513Z,84.70
2023-04-15T11:54:49.476Z,84.60
2023-04-15T11:59:55.606Z,85.50
2023-04-15T12:05:04.698Z,85.30
2023-04-15T12:10:08.711Z,85.50
2023-04-15T12:15:11.286Z,88.00
2023-04-15T12:20:25.288Z,87.90
2023-04-15T12:25:36.775Z,89.00
2023-04-15T12:30:50.370Z,88.90
2023-04-15T12:35:55.234Z,90.10
2023-04-15T12:40:59.183Z,90.20
2023-04-15T12:46:01.661Z,90.50
2023-04-15T12:51:06.790Z,90.50
2023-04-15T12:56:10.639Z,90.30
2023-04-15T13:01:13.212Z,89.50
2023-04-15T13:06:18.478Z,87.00
2023-04-15T13:11:23.115Z,87.20
2023-04-15T13:16:25.548Z,87.50
2023-04-15T13:21:31.470Z,88.10
2023-04-15T13:26:35.684Z,88.70
2023-04-15T13:31:39.380Z,89.90
2023-04-15T13:36:42.016Z,89.80
2023-04-15T13:41:45.899Z,89.40
2023-04-15T13:46:48.313Z,88.70
2023-04-15T13:51:51.437Z,87.60
2023-04-15T13:56:55.545Z,87.70
2023-04-15T14:01:58.099Z,87.30
2023-04-15T14:07:05.322Z,88.10
2023-04-15T14:12:09.361Z,88.70
2023-04-15T14:17:14.832Z,89.60
2023-04-15T14:22:17.278Z,89.50
2023-04-15T14:27:21.506Z,89.00
2023-04-15T14:32:25.955Z,89.50
2023-04-15T14:37:28.822Z,89.70
2023-04-15T14:42:32.958Z,90.70
2023-04-15T14:47:35.839Z,90.80
2023-04-15T14:52:38.578Z,90.80
2023-04-15T14:57:43.134Z,90.50
2023-04-15T15:02:45.846Z,90.20
2023-04-15T15:07:48.470Z,90.10
2023-04-15T15:12:52.948Z,90.50
2023-04-15T15:17:55.646Z,90.70
2023-04-15T15:22:58.756Z,91.10
2023-04-15T15:28:02.707Z,90.60
2023-04-15T15:33:05.405Z,90.20
2023-04-15T15:38:11.735Z,90.30
2023-04-15T15:43:15.564Z,91.10
2023-04-15T15:48:18.414Z,91.20
2023-04-15T15:53:20.969Z,91.10
2023-04-15T15:58:24.863Z,91.10
2023-04-15T16:03:27.643Z,91.20
2023-04-15T16:08:30.118Z,91.40
2023-04-15T16:13:34.519Z,91.10
2023-04-15T16:18:39.995Z,91.30
2023-04-15T16:23:42.617Z,91.00
2023-04-15T16:28:46.654Z,91.10
2023-04-15T16:33:49.206Z,91.20
2023-04-15T16:38:51.581Z,91.00
2023-04-15T16:44:05.272Z,90.50
2023-04-15T16:49:07.684Z,90.30
2023-04-15T16:54:10.084Z,90.20
2023-04-15T16:59:13.954Z,90.10
2023-04-15T17:04:16.576Z,89.90
2023-04-15T17:09:19.114Z,90.20
2023-04-15T17:14:27.616Z,91.30
2023-04-15T17:19:30.047Z,92.30
2023-04-15T17:24:32.471Z,91.90
2023-04-15T17:29:36.248Z,91.60
2023-04-15T17:34:49.445Z,91.40
2023-04-15T17:39:53.685Z,91.10
2023-04-15T17:44:57.467Z,91.50
2023-04-15T17:50:00.026Z,92.10
2023-04-15T17:55:02.481Z,91.70
2023-04-15T18:00:09.681Z,91.80
2023-04-15T18:05:15.654Z,91.70
2023-04-15T18:10:21.023Z,92.00
2023-04-15T18:15:24.949Z,91.90
2023-04-15T18:20:27.627Z,91.70
2023-04-15T18:25:31.708Z,91.90
2023-04-15T18:30:35.765Z,92.00
2023-04-15T18:35:38.538Z,92.30
2023-04-15T18:40:40.961Z,92.10
2023-04-15T18:45:44.964Z,92.00
2023-04-15T18:50:50.374Z,92.10
2023-04-15T18:55:52.907Z,92.20
2023-04-15T19:01:00.111Z,92.60
2023-04-15T19:06:03.000Z,92.60
2023-04-15T19:11:05.591Z,92.10
2023-04-15T19:16:09.412Z,91.70
2023-04-15T19:21:12.685Z,91.90
2023-04-15T19:26:15.195Z,91.40
2023-04-15T19:31:19.523Z,91.20
2023-04-15T19:36:22.070Z,91.00
2023-04-15T19:41:24.454Z,90.80
2023-04-15T19:46:31.166Z,90.70
2023-04-15T19:51:33.859Z,90.80
2023-04-15T19:56:39.239Z,90.50
2023-04-15T20:01:43.123Z,90.60
2023-04-15T20:06:45.532Z,90.40
2023-04-15T20:12:47.931Z,90.30
2023-04-15T20:17:11.639Z,90.20
2023-04-15T20:22:14.054Z,90.20
2023-04-15T20:27:19.301Z,90.20
2023-04-15T20:32:23.087Z,90.20
2023-04-15T20:37:25.577Z,89.80
2023-04-15T20:42:28.097Z,89.90
2023-04-15T20:47:34.521Z,90.00
2023-04-15T20:52:36.925Z,90.10
2023-04-15T20:57:39.309Z,90.10
2023-04-15T21:02:43.641Z,89.30
2023-04-15T21:07:46.206Z,89.10
2023-04-15T21:12:48.630Z,88.90
2023-04-15T21:17:52.500Z,88.90
2023-04-15T21:22:54.949Z,89.10
2023-04-15T21:27:57.319Z,88.90
2023-04-15T21:33:01.115Z,89.00
2023-04-15T21:38:03.639Z,88.90
2023-04-15T21:43:09.403Z,89.50
2023-04-15T21:48:13.255Z,89.40
2023-04-15T21:53:18.395Z,89.60
2023-04-15T21:58:20.791Z,90.30
2023-04-15T22:03:24.893Z,90.20
2023-04-15T22:08:27.706Z,90.50
2023-04-15T22:13:30.239Z,90.30
2023-04-15T22:18:34.176Z,90.60
2023-04-15T22:23:36.690Z,90.70
2023-04-15T22:28:39.219Z,90.70
2023-04-15T22:33:45.856Z,90.70
2023-04-15T22:38:48.551Z,90.50
2023-04-15T22:43:53.773Z,90.60
2023-04-15T22:49:00.316Z,90.70
2023-04-15T22:54:03.177Z,90.50
2023-04-15T22:59:08.490Z,90.40
2023-04-15T23:04:23.069Z,90.30
2023-04-15T23:09:28.441Z,90.40
2023-04-15T23:14:31.664Z,90.40
2023-04-15T23:19:38.208Z,90.30
2023-04-15T23:24:40.602Z,90.30
2023-04-15T23:29:43.039Z,90.80
2023-04-15T23:34:49.812Z,90.90
2023-04-15T23:39:52.245Z,90.90
2023-04-15T23:44:54.643Z,90.90
2023-04-15T23:49:58.924Z,91.20
2023-04-15T23:55:01.760Z,90.80
